Lawton, MI (49065)

5:07 AM EDT on September 05, 2015 (GMT -0400)
APRSWXNET | | Change Station
CLOSE
Current Station
Personal Weather Station
Location: Lawton, MI
Elevation: 919 ft
Nearby Weather Stations

Elev 919 ft 42.17 °N, 85.82 °W | Updated 20 minutes ago

Scattered Clouds
Scattered Clouds
67 °F
Feels Like 67 °F
N
3
Wind Variable Wind from South
Gusts 7.0 mph

Today
High -- | Low -- °F
--% Chance of Precip.
Yesterday
High -- | Low -- °F
Precip. -- in
7:12 AM 8:10 PM
Waning Gibbous, 50% visible
Pressure 30.08 in
Visibility 9.0 miles
Clouds Scattered Clouds 4500 ft
Dew Point 65 °F
Humidity 94%
Rainfall in
Snow Depth Not available.
UV 0 out of 12
Pollen 9.10 out of 12
Air Quality Not available.
Flu Activity Not available.
METAR KAZO 050853Z AUTO 17007KT 9SM SCT045 21/19 A3009 RMK AO2 SLP184 T02110194 53004
Pressure 30.08 in
Visibility 9.0 miles
Clouds Scattered Clouds 4500 ft
Dew Point 65 °F
Humidity 94%
Rainfall in
Snow Depth Not available.
UV 0 out of 12
Pollen 9.10 out of 12
Air Quality Not available.
Flu Activity Not available.
METAR KAZO 050853Z AUTO 17007KT 9SM SCT045 21/19 A3009 RMK AO2 SLP184 T02110194 53004

10-Day Weather Forecast

×

Almanac

Astronomy

Sep. 05, 2015 Rise Set
Actual Time
Civil Twilight
Nautical Twilight
Astronomical Twilight
Moon
Length of Visible Light
Length of Day
Tomorrow will be .
, % of the Moon is Illuminated

Today's Extremes

State Highs State Lows

Community

WunderPhotos

Upload Photos

1,852,440 photos uploaded!

WunderBlogs® & News

Nearby

Air Quality

  Air Quality AQ Index Pollutant
Not available.

Snow Depth

Station Depth Elevation

Earthquake Activity

City Distance Mag. Time & Date
Minimum magnitude displayed is 2.5.

Coastal Water Temperatures

Place Temperature

Stations

Nearby Weather Stations

Station Location Temp. Windchill Dew Point Humidity Wind Precip. Elev Updated Type